sensor_id;sensor_type;location;lat;lon;timestamp;P1;durP1;ratioP1;P2;durP2;ratioP2
70312;SDS011;57723;51.698;5.344;2023-09-19T00:01:28;3.03;;;1.10;;
70312;SDS011;57723;51.698;5.344;2023-09-19T00:03:57;5.77;;;1.20;;
70312;SDS011;57723;51.698;5.344;2023-09-19T00:06:28;2.95;;;1.15;;
70312;SDS011;57723;51.698;5.344;2023-09-19T00:08:56;4.75;;;1.50;;
70312;SDS011;57723;51.698;5.344;2023-09-19T00:11:24;3.75;;;1.20;;
70312;SDS011;57723;51.698;5.344;2023-09-19T00:13:54;3.25;;;1.40;;
70312;SDS011;57723;51.698;5.344;2023-09-19T00:16:24;3.20;;;1.00;;
70312;SDS011;57723;51.698;5.344;2023-09-19T00:18:51;2.22;;;0.93;;
70312;SDS011;57723;51.698;5.344;2023-09-19T00:21:17;2.17;;;0.90;;
70312;SDS011;57723;51.698;5.344;2023-09-19T00:23:44;3.20;;;1.35;;
70312;SDS011;57723;51.698;5.344;2023-09-19T00:26:10;3.00;;;1.00;;
70312;SDS011;57723;51.698;5.344;2023-09-19T00:28:39;4.25;;;1.27;;
70312;SDS011;57723;51.698;5.344;2023-09-19T00:31:08;2.83;;;1.20;;
70312;SDS011;57723;51.698;5.344;2023-09-19T00:33:33;1.97;;;0.90;;
70312;SDS011;57723;51.698;5.344;2023-09-19T00:35:59;2.38;;;1.02;;
70312;SDS011;57723;51.698;5.344;2023-09-19T00:38:29;3.43;;;0.90;;
70312;SDS011;57723;51.698;5.344;2023-09-19T00:40:57;3.95;;;1.20;;
70312;SDS011;57723;51.698;5.344;2023-09-19T00:43:27;2.47;;;1.05;;
70312;SDS011;57723;51.698;5.344;2023-09-19T00:45:56;2.70;;;1.00;;
70312;SDS011;57723;51.698;5.344;2023-09-19T00:48:22;2.93;;;1.10;;
70312;SDS011;57723;51.698;5.344;2023-09-19T00:50:48;2.97;;;0.80;;
70312;SDS011;57723;51.698;5.344;2023-09-19T00:53:15;2.50;;;0.90;;
70312;SDS011;57723;51.698;5.344;2023-09-19T00:55:45;1.63;;;0.90;;
70312;SDS011;57723;51.698;5.344;2023-09-19T00:58:21;2.50;;;0.90;;
70312;SDS011;57723;51.698;5.344;2023-09-19T01:00:50;2.37;;;1.13;;
70312;SDS011;57723;51.698;5.344;2023-09-19T01:03:19;2.80;;;1.17;;
70312;SDS011;57723;51.698;5.344;2023-09-19T01:05:46;1.92;;;0.93;;
70312;SDS011;57723;51.698;5.344;2023-09-19T01:08:12;3.92;;;1.52;;
70312;SDS011;57723;51.698;5.344;2023-09-19T01:10:39;1.47;;;0.90;;
70312;SDS011;57723;51.698;5.344;2023-09-19T01:19:01;2.77;;;1.07;;
70312;SDS011;57723;51.698;5.344;2023-09-19T01:21:39;3.25;;;1.10;;
70312;SDS011;57723;51.698;5.344;2023-09-19T01:29:39;3.47;;;1.10;;
70312;SDS011;57723;51.698;5.344;2023-09-19T01:32:08;2.07;;;0.90;;
70312;SDS011;57723;51.698;5.344;2023-09-19T01:34:44;3.70;;;1.02;;
70312;SDS011;57723;51.698;5.344;2023-09-19T01:37:14;2.55;;;0.98;;
70312;SDS011;57723;51.698;5.344;2023-09-19T01:39:43;3.40;;;1.10;;
70312;SDS011;57723;51.698;5.344;2023-09-19T01:42:24;4.00;;;1.83;;
70312;SDS011;57723;51.698;5.344;2023-09-19T01:45:02;3.95;;;1.30;;
70312;SDS011;57723;51.698;5.344;2023-09-19T01:47:33;3.88;;;1.00;;
70312;SDS011;57723;51.698;5.344;2023-09-19T01:52:36;3.20;;;1.00;;
70312;SDS011;57723;51.698;5.344;2023-09-19T01:55:08;4.70;;;1.30;;
70312;SDS011;57723;51.698;5.344;2023-09-19T01:57:42;3.20;;;1.10;;
70312;SDS011;57723;51.698;5.344;2023-09-19T02:00:11;3.30;;;0.90;;
70312;SDS011;57723;51.698;5.344;2023-09-19T02:02:39;2.50;;;1.10;;
70312;SDS011;57723;51.698;5.344;2023-09-19T02:05:13;3.55;;;1.00;;
70312;SDS011;57723;51.698;5.344;2023-09-19T02:07:47;3.60;;;1.10;;
70312;SDS011;57723;51.698;5.344;2023-09-19T02:10:15;3.50;;;1.15;;
70312;SDS011;57723;51.698;5.344;2023-09-19T02:12:42;2.50;;;1.00;;
70312;SDS011;57723;51.698;5.344;2023-09-19T02:15:10;3.77;;;1.10;;
70312;SDS011;57723;51.698;5.344;2023-09-19T02:17:36;3.53;;;1.10;;
70312;SDS011;57723;51.698;5.344;2023-09-19T02:20:02;3.25;;;0.80;;
70312;SDS011;57723;51.698;5.344;2023-09-19T02:22:36;2.35;;;1.00;;
70312;SDS011;57723;51.698;5.344;2023-09-19T02:25:03;3.30;;;1.10;;
70312;SDS011;57723;51.698;5.344;2023-09-19T02:27:31;3.15;;;1.00;;
70312;SDS011;57723;51.698;5.344;2023-09-19T02:29:57;3.95;;;1.05;;
70312;SDS011;57723;51.698;5.344;2023-09-19T02:32:23;2.77;;;1.10;;
70312;SDS011;57723;51.698;5.344;2023-09-19T02:34:58;2.55;;;0.73;;
70312;SDS011;57723;51.698;5.344;2023-09-19T02:37:28;2.70;;;1.10;;
70312;SDS011;57723;51.698;5.344;2023-09-19T02:39:53;2.63;;;0.97;;
70312;SDS011;57723;51.698;5.344;2023-09-19T02:42:22;3.20;;;0.90;;
70312;SDS011;57723;51.698;5.344;2023-09-19T02:44:49;2.10;;;1.00;;
70312;SDS011;57723;51.698;5.344;2023-09-19T02:47:15;2.78;;;0.90;;
70312;SDS011;57723;51.698;5.344;2023-09-19T02:49:48;4.45;;;1.20;;
70312;SDS011;57723;51.698;5.344;2023-09-19T02:52:17;2.28;;;0.82;;
70312;SDS011;57723;51.698;5.344;2023-09-19T02:54:45;2.77;;;1.00;;
70312;SDS011;57723;51.698;5.344;2023-09-19T02:57:12;3.42;;;1.08;;
70312;SDS011;57723;51.698;5.344;2023-09-19T02:59:43;3.60;;;0.90;;
70312;SDS011;57723;51.698;5.344;2023-09-19T03:02:09;4.47;;;1.20;;
70312;SDS011;57723;51.698;5.344;2023-09-19T03:04:35;3.17;;;1.10;;
70312;SDS011;57723;51.698;5.344;2023-09-19T03:07:00;3.20;;;1.10;;
70312;SDS011;57723;51.698;5.344;2023-09-19T03:09:30;2.67;;;1.00;;
70312;SDS011;57723;51.698;5.344;2023-09-19T03:11:59;2.37;;;0.93;;
70312;SDS011;57723;51.698;5.344;2023-09-19T03:14:32;4.57;;;1.00;;
70312;SDS011;57723;51.698;5.344;2023-09-19T03:17:00;3.08;;;1.23;;
70312;SDS011;57723;51.698;5.344;2023-09-19T03:19:25;3.30;;;0.93;;
70312;SDS011;57723;51.698;5.344;2023-09-19T03:21:51;2.80;;;1.15;;
70312;SDS011;57723;51.698;5.344;2023-09-19T03:24:17;2.90;;;0.97;;
70312;SDS011;57723;51.698;5.344;2023-09-19T03:26:42;2.07;;;0.97;;
70312;SDS011;57723;51.698;5.344;2023-09-19T03:29:07;3.93;;;1.17;;
70312;SDS011;57723;51.698;5.344;2023-09-19T03:31:34;2.63;;;0.90;;
70312;SDS011;57723;51.698;5.344;2023-09-19T03:34:02;2.70;;;1.00;;
70312;SDS011;57723;51.698;5.344;2023-09-19T03:36:31;2.65;;;1.08;;
70312;SDS011;57723;51.698;5.344;2023-09-19T03:38:57;3.87;;;1.00;;
70312;SDS011;57723;51.698;5.344;2023-09-19T03:41:22;2.83;;;0.90;;
70312;SDS011;57723;51.698;5.344;2023-09-19T03:43:48;4.00;;;1.00;;
70312;SDS011;57723;51.698;5.344;2023-09-19T03:46:14;2.85;;;1.10;;
70312;SDS011;57723;51.698;5.344;2023-09-19T03:48:43;3.83;;;0.90;;
70312;SDS011;57723;51.698;5.344;2023-09-19T03:51:08;3.10;;;1.00;;
70312;SDS011;57723;51.698;5.344;2023-09-19T03:53:36;3.03;;;1.00;;
70312;SDS011;57723;51.698;5.344;2023-09-19T03:56:01;2.33;;;0.82;;
70312;SDS011;57723;51.698;5.344;2023-09-19T03:58:28;2.08;;;0.90;;
70312;SDS011;57723;51.698;5.344;2023-09-19T04:00:57;2.88;;;1.00;;
70312;SDS011;57723;51.698;5.344;2023-09-19T04:03:25;3.70;;;1.10;;
70312;SDS011;57723;51.698;5.344;2023-09-19T04:05:59;2.70;;;1.00;;
70312;SDS011;57723;51.698;5.344;2023-09-19T04:08:27;2.60;;;0.90;;
70312;SDS011;57723;51.698;5.344;2023-09-19T04:10:53;1.90;;;0.80;;
70312;SDS011;57723;51.698;5.344;2023-09-19T04:13:27;2.87;;;1.03;;
70312;SDS011;57723;51.698;5.344;2023-09-19T04:15:54;2.78;;;0.93;;
70312;SDS011;57723;51.698;5.344;2023-09-19T04:18:19;3.03;;;1.03;;
70312;SDS011;57723;51.698;5.344;2023-09-19T04:20:52;2.83;;;1.08;;
70312;SDS011;57723;51.698;5.344;2023-09-19T04:23:17;3.05;;;0.95;;
70312;SDS011;57723;51.698;5.344;2023-09-19T04:25:46;2.13;;;0.90;;
70312;SDS011;57723;51.698;5.344;2023-09-19T04:28:11;1.75;;;0.80;;
70312;SDS011;57723;51.698;5.344;2023-09-19T04:30:37;3.10;;;1.00;;
70312;SDS011;57723;51.698;5.344;2023-09-19T04:45:15;2.13;;;0.93;;
70312;SDS011;57723;51.698;5.344;2023-09-19T04:47:41;3.37;;;1.10;;
70312;SDS011;57723;51.698;5.344;2023-09-19T04:50:08;2.92;;;0.98;;
70312;SDS011;57723;51.698;5.344;2023-09-19T04:52:38;2.97;;;1.00;;
70312;SDS011;57723;51.698;5.344;2023-09-19T04:55:04;3.10;;;1.00;;
70312;SDS011;57723;51.698;5.344;2023-09-19T04:57:29;3.33;;;1.00;;
70312;SDS011;57723;51.698;5.344;2023-09-19T04:59:57;3.22;;;0.90;;
70312;SDS011;57723;51.698;5.344;2023-09-19T05:02:24;3.63;;;1.02;;
70312;SDS011;57723;51.698;5.344;2023-09-19T05:04:51;4.97;;;1.17;;
70312;SDS011;57723;51.698;5.344;2023-09-19T05:07:18;4.70;;;1.10;;
70312;SDS011;57723;51.698;5.344;2023-09-19T05:09:46;3.73;;;1.10;;
70312;SDS011;57723;51.698;5.344;2023-09-19T05:12:12;2.83;;;1.15;;
70312;SDS011;57723;51.698;5.344;2023-09-19T05:14:37;3.17;;;1.73;;
70312;SDS011;57723;51.698;5.344;2023-09-19T05:17:03;5.27;;;2.20;;
70312;SDS011;57723;51.698;5.344;2023-09-19T05:19:29;5.38;;;2.67;;
70312;SDS011;57723;51.698;5.344;2023-09-19T05:21:54;8.97;;;1.70;;
70312;SDS011;57723;51.698;5.344;2023-09-19T05:24:23;14.10;;;1.67;;
70312;SDS011;57723;51.698;5.344;2023-09-19T05:26:52;10.93;;;2.50;;
70312;SDS011;57723;51.698;5.344;2023-09-19T05:29:25;15.30;;;2.65;;
70312;SDS011;57723;51.698;5.344;2023-09-19T05:31:59;9.40;;;1.85;;
70312;SDS011;57723;51.698;5.344;2023-09-19T05:34:29;12.35;;;2.75;;
70312;SDS011;57723;51.698;5.344;2023-09-19T05:37:05;13.23;;;2.67;;
70312;SDS011;57723;51.698;5.344;2023-09-19T05:39:32;10.85;;;2.60;;
70312;SDS011;57723;51.698;5.344;2023-09-19T05:41:57;11.68;;;2.75;;
70312;SDS011;57723;51.698;5.344;2023-09-19T05:44:26;15.43;;;3.00;;
70312;SDS011;57723;51.698;5.344;2023-09-19T05:46:53;10.32;;;2.55;;
70312;SDS011;57723;51.698;5.344;2023-09-19T05:49:22;8.65;;;2.33;;
70312;SDS011;57723;51.698;5.344;2023-09-19T05:51:52;6.97;;;2.13;;
70312;SDS011;57723;51.698;5.344;2023-09-19T05:54:20;10.05;;;2.47;;
70312;SDS011;57723;51.698;5.344;2023-09-19T05:56:59;11.15;;;2.53;;
70312;SDS011;57723;51.698;5.344;2023-09-19T05:59:24;9.00;;;1.87;;
70312;SDS011;57723;51.698;5.344;2023-09-19T06:01:57;9.52;;;2.47;;
70312;SDS011;57723;51.698;5.344;2023-09-19T06:04:22;9.03;;;2.30;;
70312;SDS011;57723;51.698;5.344;2023-09-19T06:06:48;8.77;;;2.30;;
70312;SDS011;57723;51.698;5.344;2023-09-19T06:09:16;11.65;;;2.40;;
70312;SDS011;57723;51.698;5.344;2023-09-19T06:11:41;7.80;;;1.83;;
70312;SDS011;57723;51.698;5.344;2023-09-19T06:14:08;8.43;;;2.10;;
70312;SDS011;57723;51.698;5.344;2023-09-19T06:16:35;9.55;;;1.80;;
70312;SDS011;57723;51.698;5.344;2023-09-19T06:19:03;8.02;;;2.55;;
70312;SDS011;57723;51.698;5.344;2023-09-19T06:21:34;6.63;;;1.77;;
70312;SDS011;57723;51.698;5.344;2023-09-19T06:24:06;7.78;;;2.00;;
70312;SDS011;57723;51.698;5.344;2023-09-19T06:26:35;8.32;;;1.98;;
70312;SDS011;57723;51.698;5.344;2023-09-19T06:29:02;7.57;;;2.10;;
70312;SDS011;57723;51.698;5.344;2023-09-19T06:31:33;8.95;;;1.85;;
70312;SDS011;57723;51.698;5.344;2023-09-19T06:34:03;8.47;;;1.80;;
70312;SDS011;57723;51.698;5.344;2023-09-19T06:36:32;8.15;;;1.98;;
70312;SDS011;57723;51.698;5.344;2023-09-19T06:39:10;7.68;;;1.95;;
70312;SDS011;57723;51.698;5.344;2023-09-19T06:47:25;9.60;;;2.10;;
70312;SDS011;57723;51.698;5.344;2023-09-19T06:52:58;10.20;;;1.98;;
70312;SDS011;57723;51.698;5.344;2023-09-19T06:55:46;7.85;;;1.58;;
70312;SDS011;57723;51.698;5.344;2023-09-19T06:58:12;6.77;;;1.53;;
70312;SDS011;57723;51.698;5.344;2023-09-19T07:00:49;9.50;;;1.80;;
70312;SDS011;57723;51.698;5.344;2023-09-19T07:03:37;6.83;;;1.77;;
70312;SDS011;57723;51.698;5.344;2023-09-19T07:06:10;5.72;;;1.50;;
70312;SDS011;57723;51.698;5.344;2023-09-19T07:14:33;5.57;;;1.58;;
70312;SDS011;57723;51.698;5.344;2023-09-19T07:17:16;6.23;;;1.60;;
70312;SDS011;57723;51.698;5.344;2023-09-19T07:23:22;6.55;;;1.90;;
70312;SDS011;57723;51.698;5.344;2023-09-19T07:26:05;6.88;;;1.65;;
70312;SDS011;57723;51.698;5.344;2023-09-19T07:28:42;4.90;;;1.40;;
70312;SDS011;57723;51.698;5.344;2023-09-19T07:31:36;7.07;;;1.70;;
70312;SDS011;57723;51.698;5.344;2023-09-19T07:40:52;4.18;;;1.27;;
70312;SDS011;57723;51.698;5.344;2023-09-19T07:43:37;7.15;;;1.30;;
70312;SDS011;57723;51.698;5.344;2023-09-19T07:46:17;4.03;;;1.17;;
70312;SDS011;57723;51.698;5.344;2023-09-19T07:51:49;7.30;;;1.63;;
70312;SDS011;57723;51.698;5.344;2023-09-19T07:54:25;4.20;;;1.52;;
70312;SDS011;57723;51.698;5.344;2023-09-19T07:56:54;4.13;;;1.30;;
70312;SDS011;57723;51.698;5.344;2023-09-19T07:59:39;6.43;;;1.50;;
70312;SDS011;57723;51.698;5.344;2023-09-19T08:05:00;5.10;;;1.40;;
70312;SDS011;57723;51.698;5.344;2023-09-19T08:10:35;4.50;;;1.35;;
70312;SDS011;57723;51.698;5.344;2023-09-19T08:13:06;5.77;;;1.40;;
70312;SDS011;57723;51.698;5.344;2023-09-19T08:15:42;6.13;;;1.48;;
70312;SDS011;57723;51.698;5.344;2023-09-19T08:18:18;3.70;;;1.38;;
70312;SDS011;57723;51.698;5.344;2023-09-19T08:20:55;8.05;;;1.42;;
70312;SDS011;57723;51.698;5.344;2023-09-19T08:23:47;7.07;;;1.30;;
70312;SDS011;57723;51.698;5.344;2023-09-19T08:26:22;6.97;;;1.53;;
70312;SDS011;57723;51.698;5.344;2023-09-19T08:28:50;7.67;;;1.77;;
70312;SDS011;57723;51.698;5.344;2023-09-19T08:31:21;4.90;;;1.20;;
70312;SDS011;57723;51.698;5.344;2023-09-19T08:33:54;6.63;;;1.80;;
70312;SDS011;57723;51.698;5.344;2023-09-19T08:36:28;5.55;;;1.40;;
70312;SDS011;57723;51.698;5.344;2023-09-19T08:38:58;5.07;;;1.50;;
70312;SDS011;57723;51.698;5.344;2023-09-19T08:41:37;4.70;;;1.20;;
70312;SDS011;57723;51.698;5.344;2023-09-19T08:47:11;3.60;;;1.20;;
70312;SDS011;57723;51.698;5.344;2023-09-19T08:52:16;4.97;;;1.20;;
70312;SDS011;57723;51.698;5.344;2023-09-19T08:54:49;5.10;;;1.23;;
70312;SDS011;57723;51.698;5.344;2023-09-19T08:57:25;5.55;;;1.50;;
70312;SDS011;57723;51.698;5.344;2023-09-19T08:59:56;4.80;;;1.30;;
70312;SDS011;57723;51.698;5.344;2023-09-19T09:02:31;4.25;;;1.17;;
70312;SDS011;57723;51.698;5.344;2023-09-19T09:05:02;6.97;;;1.40;;
70312;SDS011;57723;51.698;5.344;2023-09-19T09:07:42;7.25;;;1.52;;
70312;SDS011;57723;51.698;5.344;2023-09-19T09:10:44;5.22;;;1.30;;
70312;SDS011;57723;51.698;5.344;2023-09-19T09:13:14;5.77;;;1.20;;
70312;SDS011;57723;51.698;5.344;2023-09-19T09:19:09;9.00;;;1.40;;
70312;SDS011;57723;51.698;5.344;2023-09-19T09:22:14;5.20;;;1.20;;
70312;SDS011;57723;51.698;5.344;2023-09-19T09:25:00;4.03;;;1.10;;
70312;SDS011;57723;51.698;5.344;2023-09-19T09:27:31;4.90;;;1.30;;
70312;SDS011;57723;51.698;5.344;2023-09-19T09:30:00;4.82;;;1.52;;
70312;SDS011;57723;51.698;5.344;2023-09-19T09:32:30;8.63;;;1.50;;
70312;SDS011;57723;51.698;5.344;2023-09-19T09:35:00;5.88;;;1.35;;
70312;SDS011;57723;51.698;5.344;2023-09-19T09:37:26;6.40;;;1.30;;
70312;SDS011;57723;51.698;5.344;2023-09-19T09:39:56;6.40;;;1.40;;
70312;SDS011;57723;51.698;5.344;2023-09-19T09:42:38;5.07;;;1.20;;
70312;SDS011;57723;51.698;5.344;2023-09-19T09:45:23;5.93;;;1.48;;
70312;SDS011;57723;51.698;5.344;2023-09-19T09:48:06;5.30;;;1.25;;
70312;SDS011;57723;51.698;5.344;2023-09-19T09:50:54;4.33;;;1.30;;
70312;SDS011;57723;51.698;5.344;2023-09-19T09:56:21;5.18;;;1.38;;
70312;SDS011;57723;51.698;5.344;2023-09-19T09:58:52;8.40;;;1.67;;
70312;SDS011;57723;51.698;5.344;2023-09-19T10:01:33;6.65;;;1.58;;
70312;SDS011;57723;51.698;5.344;2023-09-19T10:04:30;5.10;;;1.70;;
70312;SDS011;57723;51.698;5.344;2023-09-19T10:07:26;4.57;;;1.20;;
70312;SDS011;57723;51.698;5.344;2023-09-19T10:10:06;4.63;;;1.13;;
70312;SDS011;57723;51.698;5.344;2023-09-19T10:12:44;5.90;;;1.25;;
70312;SDS011;57723;51.698;5.344;2023-09-19T10:15:16;4.78;;;1.27;;
70312;SDS011;57723;51.698;5.344;2023-09-19T10:17:46;6.40;;;1.30;;
70312;SDS011;57723;51.698;5.344;2023-09-19T10:20:27;3.25;;;1.33;;
70312;SDS011;57723;51.698;5.344;2023-09-19T10:23:28;5.05;;;1.20;;
70312;SDS011;57723;51.698;5.344;2023-09-19T10:26:03;5.65;;;1.00;;
70312;SDS011;57723;51.698;5.344;2023-09-19T10:31:35;4.40;;;1.20;;
70312;SDS011;57723;51.698;5.344;2023-09-19T10:34:09;6.75;;;1.58;;
70312;SDS011;57723;51.698;5.344;2023-09-19T10:36:37;6.78;;;1.77;;
70312;SDS011;57723;51.698;5.344;2023-09-19T10:39:10;4.03;;;1.20;;
70312;SDS011;57723;51.698;5.344;2023-09-19T10:53:25;3.95;;;1.25;;
70312;SDS011;57723;51.698;5.344;2023-09-19T10:59:30;5.07;;;1.33;;
70312;SDS011;57723;51.698;5.344;2023-09-19T11:07:33;4.85;;;1.50;;
70312;SDS011;57723;51.698;5.344;2023-09-19T11:16:38;3.45;;;1.05;;
70312;SDS011;57723;51.698;5.344;2023-09-19T11:22:00;7.65;;;1.50;;
70312;SDS011;57723;51.698;5.344;2023-09-19T11:24:32;3.15;;;0.90;;
70312;SDS011;57723;51.698;5.344;2023-09-19T11:36:07;5.68;;;1.10;;
70312;SDS011;57723;51.698;5.344;2023-09-19T11:46:33;5.63;;;1.15;;
70312;SDS011;57723;51.698;5.344;2023-09-19T11:49:13;3.80;;;1.02;;
70312;SDS011;57723;51.698;5.344;2023-09-19T11:51:40;3.55;;;0.90;;
70312;SDS011;57723;51.698;5.344;2023-09-19T11:54:30;2.43;;;0.93;;
70312;SDS011;57723;51.698;5.344;2023-09-19T11:57:05;4.90;;;0.80;;
70312;SDS011;57723;51.698;5.344;2023-09-19T11:59:31;3.47;;;1.00;;
70312;SDS011;57723;51.698;5.344;2023-09-19T12:07:14;5.63;;;1.10;;
70312;SDS011;57723;51.698;5.344;2023-09-19T12:09:41;4.07;;;1.10;;
70312;SDS011;57723;51.698;5.344;2023-09-19T12:12:19;3.10;;;1.00;;
70312;SDS011;57723;51.698;5.344;2023-09-19T12:14:48;4.07;;;1.00;;
70312;SDS011;57723;51.698;5.344;2023-09-19T12:17:14;5.95;;;1.00;;
70312;SDS011;57723;51.698;5.344;2023-09-19T12:19:49;6.17;;;0.97;;
70312;SDS011;57723;51.698;5.344;2023-09-19T12:22:15;4.47;;;0.77;;
70312;SDS011;57723;51.698;5.344;2023-09-19T12:24:43;3.50;;;0.93;;
70312;SDS011;57723;51.698;5.344;2023-09-19T12:27:09;2.07;;;0.70;;
70312;SDS011;57723;51.698;5.344;2023-09-19T12:29:57;3.78;;;0.82;;
70312;SDS011;57723;51.698;5.344;2023-09-19T12:35:32;3.10;;;0.88;;
70312;SDS011;57723;51.698;5.344;2023-09-19T12:38:21;2.75;;;0.75;;
70312;SDS011;57723;51.698;5.344;2023-09-19T12:40:48;4.93;;;0.77;;
70312;SDS011;57723;51.698;5.344;2023-09-19T12:43:19;3.67;;;0.88;;
70312;SDS011;57723;51.698;5.344;2023-09-19T12:45:52;2.78;;;0.88;;
70312;SDS011;57723;51.698;5.344;2023-09-19T12:48:25;3.58;;;0.80;;
70312;SDS011;57723;51.698;5.344;2023-09-19T12:51:04;2.67;;;0.80;;
70312;SDS011;57723;51.698;5.344;2023-09-19T12:53:35;3.83;;;0.90;;
70312;SDS011;57723;51.698;5.344;2023-09-19T12:56:08;2.33;;;0.73;;
70312;SDS011;57723;51.698;5.344;2023-09-19T12:58:36;2.63;;;0.73;;
70312;SDS011;57723;51.698;5.344;2023-09-19T13:01:19;2.28;;;0.80;;
70312;SDS011;57723;51.698;5.344;2023-09-19T13:06:40;5.07;;;0.97;;
70312;SDS011;57723;51.698;5.344;2023-09-19T13:09:08;2.55;;;0.70;;
70312;SDS011;57723;51.698;5.344;2023-09-19T13:11:46;2.80;;;0.90;;
70312;SDS011;57723;51.698;5.344;2023-09-19T13:14:21;1.20;;;0.63;;
70312;SDS011;57723;51.698;5.344;2023-09-19T13:16:58;2.40;;;0.82;;
70312;SDS011;57723;51.698;5.344;2023-09-19T13:19:42;2.57;;;0.70;;
70312;SDS011;57723;51.698;5.344;2023-09-19T13:22:42;1.85;;;0.73;;
70312;SDS011;57723;51.698;5.344;2023-09-19T13:25:11;2.58;;;0.75;;
70312;SDS011;57723;51.698;5.344;2023-09-19T13:27:43;3.38;;;0.55;;
70312;SDS011;57723;51.698;5.344;2023-09-19T13:30:09;3.10;;;0.90;;
70312;SDS011;57723;51.698;5.344;2023-09-19T13:32:37;3.27;;;0.97;;
70312;SDS011;57723;51.698;5.344;2023-09-19T13:35:08;2.00;;;0.80;;
70312;SDS011;57723;51.698;5.344;2023-09-19T13:37:42;2.42;;;0.60;;
70312;SDS011;57723;51.698;5.344;2023-09-19T13:40:12;2.38;;;0.70;;
70312;SDS011;57723;51.698;5.344;2023-09-19T13:42:40;4.80;;;0.73;;
70312;SDS011;57723;51.698;5.344;2023-09-19T13:45:09;2.90;;;0.70;;
70312;SDS011;57723;51.698;5.344;2023-09-19T13:47:39;1.70;;;0.60;;
70312;SDS011;57723;51.698;5.344;2023-09-19T13:50:08;3.85;;;0.75;;
70312;SDS011;57723;51.698;5.344;2023-09-19T13:52:36;1.90;;;0.70;;
70312;SDS011;57723;51.698;5.344;2023-09-19T13:55:07;3.07;;;1.00;;
70312;SDS011;57723;51.698;5.344;2023-09-19T13:57:33;3.33;;;0.63;;
70312;SDS011;57723;51.698;5.344;2023-09-19T13:59:58;3.05;;;0.70;;
70312;SDS011;57723;51.698;5.344;2023-09-19T14:02:24;4.97;;;0.87;;
70312;SDS011;57723;51.698;5.344;2023-09-19T14:04:52;1.80;;;0.80;;
70312;SDS011;57723;51.698;5.344;2023-09-19T14:07:29;2.20;;;0.68;;
70312;SDS011;57723;51.698;5.344;2023-09-19T14:09:57;2.15;;;0.75;;
70312;SDS011;57723;51.698;5.344;2023-09-19T14:12:25;4.27;;;0.77;;
70312;SDS011;57723;51.698;5.344;2023-09-19T14:14:51;4.00;;;0.80;;
70312;SDS011;57723;51.698;5.344;2023-09-19T14:17:17;1.67;;;0.70;;
70312;SDS011;57723;51.698;5.344;2023-09-19T14:19:53;1.58;;;0.70;;
70312;SDS011;57723;51.698;5.344;2023-09-19T14:22:25;2.50;;;0.88;;
70312;SDS011;57723;51.698;5.344;2023-09-19T14:24:51;3.20;;;0.70;;
70312;SDS011;57723;51.698;5.344;2023-09-19T14:27:22;1.58;;;0.70;;
70312;SDS011;57723;51.698;5.344;2023-09-19T14:29:51;1.63;;;0.70;;
70312;SDS011;57723;51.698;5.344;2023-09-19T14:32:16;2.53;;;0.80;;
70312;SDS011;57723;51.698;5.344;2023-09-19T14:34:45;3.13;;;0.70;;
70312;SDS011;57723;51.698;5.344;2023-09-19T14:37:13;3.17;;;0.70;;
70312;SDS011;57723;51.698;5.344;2023-09-19T14:39:50;1.90;;;0.68;;
70312;SDS011;57723;51.698;5.344;2023-09-19T14:42:19;2.72;;;0.80;;
70312;SDS011;57723;51.698;5.344;2023-09-19T14:44:48;1.97;;;0.80;;
70312;SDS011;57723;51.698;5.344;2023-09-19T14:47:21;1.92;;;0.82;;
70312;SDS011;57723;51.698;5.344;2023-09-19T14:49:52;2.65;;;0.73;;
70312;SDS011;57723;51.698;5.344;2023-09-19T14:52:18;4.27;;;0.83;;
70312;SDS011;57723;51.698;5.344;2023-09-19T14:54:43;3.25;;;0.80;;
70312;SDS011;57723;51.698;5.344;2023-09-19T14:57:09;2.40;;;0.80;;
70312;SDS011;57723;51.698;5.344;2023-09-19T14:59:35;2.70;;;0.70;;
70312;SDS011;57723;51.698;5.344;2023-09-19T15:02:12;1.75;;;0.73;;
70312;SDS011;57723;51.698;5.344;2023-09-19T15:04:44;2.43;;;0.80;;
70312;SDS011;57723;51.698;5.344;2023-09-19T15:07:15;2.97;;;0.82;;
70312;SDS011;57723;51.698;5.344;2023-09-19T15:09:41;3.00;;;0.80;;
70312;SDS011;57723;51.698;5.344;2023-09-19T15:12:07;2.88;;;0.93;;
70312;SDS011;57723;51.698;5.344;2023-09-19T15:14:33;2.97;;;1.00;;
70312;SDS011;57723;51.698;5.344;2023-09-19T15:16:59;2.95;;;0.77;;
70312;SDS011;57723;51.698;5.344;2023-09-19T15:19:29;3.30;;;0.70;;
70312;SDS011;57723;51.698;5.344;2023-09-19T15:21:55;4.03;;;0.90;;
70312;SDS011;57723;51.698;5.344;2023-09-19T15:24:25;3.83;;;0.82;;
70312;SDS011;57723;51.698;5.344;2023-09-19T15:26:51;3.25;;;0.70;;
70312;SDS011;57723;51.698;5.344;2023-09-19T15:29:20;5.15;;;0.90;;
70312;SDS011;57723;51.698;5.344;2023-09-19T15:31:48;2.20;;;0.70;;
70312;SDS011;57723;51.698;5.344;2023-09-19T15:34:14;3.28;;;1.10;;
70312;SDS011;57723;51.698;5.344;2023-09-19T15:36:41;4.50;;;0.82;;
70312;SDS011;57723;51.698;5.344;2023-09-19T15:39:16;2.17;;;0.80;;
70312;SDS011;57723;51.698;5.344;2023-09-19T15:41:44;2.67;;;0.90;;
70312;SDS011;57723;51.698;5.344;2023-09-19T15:44:20;2.70;;;0.80;;
70312;SDS011;57723;51.698;5.344;2023-09-19T15:46:47;4.15;;;1.00;;
70312;SDS011;57723;51.698;5.344;2023-09-19T15:49:13;5.80;;;1.20;;
70312;SDS011;57723;51.698;5.344;2023-09-19T15:51:42;4.60;;;0.93;;
70312;SDS011;57723;51.698;5.344;2023-09-19T15:54:13;3.92;;;1.10;;
70312;SDS011;57723;51.698;5.344;2023-09-19T15:56:45;3.85;;;1.20;;
70312;SDS011;57723;51.698;5.344;2023-09-19T15:59:20;1.52;;;0.82;;
70312;SDS011;57723;51.698;5.344;2023-09-19T16:01:49;3.00;;;0.80;;
70312;SDS011;57723;51.698;5.344;2023-09-19T16:04:19;3.17;;;0.70;;
70312;SDS011;57723;51.698;5.344;2023-09-19T16:06:45;2.60;;;0.73;;
70312;SDS011;57723;51.698;5.344;2023-09-19T16:09:11;3.30;;;0.80;;
70312;SDS011;57723;51.698;5.344;2023-09-19T16:11:42;2.27;;;0.90;;
70312;SDS011;57723;51.698;5.344;2023-09-19T16:14:08;2.28;;;0.70;;
70312;SDS011;57723;51.698;5.344;2023-09-19T16:16:37;3.13;;;0.82;;
70312;SDS011;57723;51.698;5.344;2023-09-19T16:19:03;1.70;;;0.70;;
70312;SDS011;57723;51.698;5.344;2023-09-19T16:21:37;3.00;;;0.90;;
70312;SDS011;57723;51.698;5.344;2023-09-19T16:24:05;2.83;;;0.90;;
70312;SDS011;57723;51.698;5.344;2023-09-19T16:26:31;3.88;;;0.90;;
70312;SDS011;57723;51.698;5.344;2023-09-19T16:29:00;2.30;;;0.90;;
70312;SDS011;57723;51.698;5.344;2023-09-19T16:31:26;5.13;;;0.90;;
70312;SDS011;57723;51.698;5.344;2023-09-19T16:33:52;1.83;;;0.75;;
70312;SDS011;57723;51.698;5.344;2023-09-19T16:36:18;1.80;;;0.70;;
70312;SDS011;57723;51.698;5.344;2023-09-19T16:38:47;4.57;;;0.90;;
70312;SDS011;57723;51.698;5.344;2023-09-19T16:41:13;2.65;;;0.77;;
70312;SDS011;57723;51.698;5.344;2023-09-19T16:43:39;2.83;;;0.80;;
70312;SDS011;57723;51.698;5.344;2023-09-19T16:46:05;3.78;;;1.00;;
70312;SDS011;57723;51.698;5.344;2023-09-19T16:48:34;2.30;;;0.90;;
70312;SDS011;57723;51.698;5.344;2023-09-19T16:51:03;4.00;;;0.97;;
70312;SDS011;57723;51.698;5.344;2023-09-19T16:53:36;2.97;;;1.20;;
70312;SDS011;57723;51.698;5.344;2023-09-19T16:56:07;2.90;;;1.10;;
70312;SDS011;57723;51.698;5.344;2023-09-19T16:58:37;3.95;;;1.10;;
70312;SDS011;57723;51.698;5.344;2023-09-19T17:01:03;3.42;;;1.10;;
70312;SDS011;57723;51.698;5.344;2023-09-19T17:03:28;3.63;;;1.20;;
70312;SDS011;57723;51.698;5.344;2023-09-19T17:06:00;3.10;;;1.07;;
70312;SDS011;57723;51.698;5.344;2023-09-19T17:08:28;3.83;;;1.00;;
70312;SDS011;57723;51.698;5.344;2023-09-19T17:11:03;3.72;;;1.10;;
70312;SDS011;57723;51.698;5.344;2023-09-19T17:13:29;3.57;;;1.23;;
70312;SDS011;57723;51.698;5.344;2023-09-19T17:15:59;3.28;;;1.10;;
70312;SDS011;57723;51.698;5.344;2023-09-19T17:18:44;3.63;;;1.10;;
70312;SDS011;57723;51.698;5.344;2023-09-19T17:21:10;2.45;;;1.00;;
70312;SDS011;57723;51.698;5.344;2023-09-19T17:23:39;2.53;;;0.80;;